Time;durP1;ratioP1;P1;durP2;ratioP2;P2;SDS_P1;SDS_P2;PMS_P1;PMS_P2;Temp;Humidity;BMP_temperature;BMP_pressure;BME280_temperature;BME280_humidity;BME280_pressure;Samples;Min_cycle;Max_cycle;Signal;HPM_P1;HPM_P2
2021/12/08 00:00:15;;;;;;;11.65;5.95;;;;;;;1.88;100.00;99392.97;4831456;29;20075;-75
2021/12/08 00:02:40;;;;;;;21.45;5.25;;;;;;;1.83;100.00;99388.25;4828481;29;20570;-74
2021/12/08 00:05:07;;;;;;;17.48;5.20;;;;;;;1.76;100.00;99365.31;4845915;29;20063;-76
2021/12/08 00:07:33;;;;;;;19.95;6.05;;;;;;;1.75;100.00;99382.22;4833390;29;20031;-75
2021/12/08 00:10:13;;;;;;;16.10;6.30;;;;;;;1.75;100.00;99368.97;4843209;29;20091;-76
2021/12/08 00:15:24;;;;;;;16.27;5.93;;;;;;;1.59;100.00;99347.00;4868134;29;20071;-76
2021/12/08 00:17:49;;;;;;;12.95;5.90;;;;;;;1.54;100.00;99322.03;4859187;29;20075;-75
2021/12/08 00:20:15;;;;;;;15.95;5.80;;;;;;;1.47;100.00;99308.69;4878309;29;20063;-74
2021/12/08 00:22:40;;;;;;;15.65;6.40;;;;;;;1.42;100.00;99298.66;4817643;29;20044;-75
2021/12/08 00:25:06;;;;;;;14.48;7.53;;;;;;;1.43;100.00;99291.53;4798102;29;22620;-73
2021/12/08 00:27:32;;;;;;;16.85;6.63;;;;;;;1.43;100.00;99284.38;4819845;29;20035;-75
2021/12/08 00:29:57;;;;;;;14.57;6.65;;;;;;;1.45;100.00;99286.84;4781270;29;20186;-73
2021/12/08 00:32:29;;;;;;;17.63;6.95;;;;;;;1.49;100.00;99276.69;4814284;29;21131;-73
2021/12/08 00:34:54;;;;;;;22.60;6.82;;;;;;;1.49;100.00;99271.38;4793317;29;20106;-74
2021/12/08 00:37:20;;;;;;;18.40;7.05;;;;;;;1.44;100.00;99274.63;4776312;29;20066;-74
2021/12/08 00:39:46;;;;;;;23.70;7.60;;;;;;;1.48;100.00;99264.44;4831630;29;20031;-73
2021/12/08 00:42:11;;;;;;;12.60;7.53;;;;;;;1.53;100.00;99276.09;4801294;28;20054;-73
2021/12/08 00:44:37;;;;;;;17.73;7.13;;;;;;;1.58;100.00;99268.38;4817992;29;20039;-72
2021/12/08 00:47:04;;;;;;;19.55;7.38;;;;;;;1.57;100.00;99264.06;4817260;29;20060;-73
2021/12/08 00:49:30;;;;;;;23.02;7.97;;;;;;;1.63;100.00;99263.31;4787542;29;20167;-73
2021/12/08 00:51:56;;;;;;;16.65;7.28;;;;;;;1.67;100.00;99253.94;4821321;29;20047;-72
2021/12/08 00:54:21;;;;;;;13.68;7.10;;;;;;;1.71;100.00;99254.38;4813789;29;20055;-72
2021/12/08 00:56:47;;;;;;;15.43;6.60;;;;;;;1.72;100.00;99250.72;4822518;28;20186;-72
2021/12/08 00:59:12;;;;;;;19.33;6.95;;;;;;;1.81;100.00;99260.16;4802726;29;20059;-72
2021/12/08 01:01:38;;;;;;;18.08;6.55;;;;;;;1.83;100.00;99265.28;4804754;28;20658;-73
2021/12/08 01:04:05;;;;;;;20.65;7.07;;;;;;;1.88;100.00;99266.31;4819487;29;22045;-73
2021/12/08 01:06:30;;;;;;;9.35;5.45;;;;;;;1.92;100.00;99277.38;4801711;29;20043;-73
2021/12/08 01:08:56;;;;;;;19.58;7.10;;;;;;;1.94;100.00;99272.72;4800373;29;20159;-73
2021/12/08 01:11:21;;;;;;;17.02;5.47;;;;;;;2.01;100.00;99264.78;4830867;29;20047;-74
2021/12/08 01:13:48;;;;;;;19.77;6.55;;;;;;;2.04;100.00;99251.94;4826261;28;20059;-73
2021/12/08 01:16:15;;;;;;;15.40;6.95;;;;;;;2.06;100.00;99255.19;4820249;28;20067;-73
2021/12/08 01:18:41;;;;;;;16.15;5.68;;;;;;;2.08;100.00;99239.88;4832625;29;20149;-73
2021/12/08 01:21:08;;;;;;;12.43;5.82;;;;;;;2.12;100.00;99238.47;4789497;29;20047;-74
2021/12/08 01:23:34;;;;;;;10.98;4.97;;;;;;;2.15;100.00;99234.59;4819975;29;20155;-73
2021/12/08 01:26:00;;;;;;;13.07;5.85;;;;;;;2.25;100.00;99237.72;4831948;28;20040;-75
2021/12/08 01:28:26;;;;;;;16.70;5.57;;;;;;;2.25;100.00;99240.38;4786848;29;20059;-74
2021/12/08 01:30:54;;;;;;;11.55;5.25;;;;;;;2.34;100.00;99251.63;4812659;29;20115;-74
2021/12/08 01:33:20;;;;;;;13.27;5.60;;;;;;;2.36;100.00;99241.66;4812405;29;20040;-74
2021/12/08 01:35:46;;;;;;;14.23;5.35;;;;;;;2.35;100.00;99234.66;4799919;29;20051;-74
2021/12/08 01:38:12;;;;;;;13.02;5.03;;;;;;;2.39;100.00;99235.94;4814133;29;20047;-72
2021/12/08 01:40:37;;;;;;;19.38;6.15;;;;;;;2.46;100.00;99207.53;4788607;29;20059;-72
2021/12/08 01:43:04;;;;;;;15.77;5.55;;;;;;;2.46;100.00;99252.72;4822667;29;20039;-73
2021/12/08 01:48:18;;;;;;;16.15;4.97;;;;;;;2.50;100.00;99231.88;4811494;29;20055;-72
2021/12/08 01:50:48;;;;;;;12.55;4.97;;;;;;;2.47;100.00;99222.47;4805760;29;20040;-73
2021/12/08 01:53:14;;;;;;;15.13;5.38;;;;;;;2.50;100.00;99222.06;4809194;28;20355;-73
2021/12/08 01:55:40;;;;;;;25.10;5.13;;;;;;;2.54;100.00;99210.00;4820914;29;20034;-73
2021/12/08 01:58:07;;;;;;;13.32;4.60;;;;;;;2.53;100.00;99197.75;4816168;29;20043;-73
2021/12/08 02:00:33;;;;;;;8.50;5.05;;;;;;;2.60;100.00;99217.19;4792184;29;20051;-72
2021/12/08 02:02:58;;;;;;;13.23;5.45;;;;;;;2.66;100.00;99225.38;4820675;29;28327;-72
2021/12/08 02:05:26;;;;;;;14.07;5.65;;;;;;;2.63;100.00;99230.09;4816243;29;20066;-73
2021/12/08 02:07:52;;;;;;;13.65;5.30;;;;;;;2.65;100.00;99229.06;4795707;29;20051;-73
2021/12/08 02:10:18;;;;;;;11.60;5.15;;;;;;;2.71;100.00;99228.25;4820556;29;20158;-74
2021/12/08 02:12:43;;;;;;;10.77;5.50;;;;;;;2.76;100.00;99225.81;4802683;28;20050;-73
2021/12/08 02:15:13;;;;;;;14.63;5.30;;;;;;;2.76;100.00;99212.50;4819986;29;22784;-73
2021/12/08 02:17:39;;;;;;;13.88;5.28;;;;;;;2.76;100.00;99218.63;4800238;29;23588;-72
2021/12/08 02:20:07;;;;;;;16.45;5.68;;;;;;;2.76;100.00;99226.63;4775128;29;20056;-72
2021/12/08 02:22:32;;;;;;;16.52;4.97;;;;;;;2.73;100.00;99212.91;4817114;29;20130;-73
2021/12/08 02:24:58;;;;;;;12.23;5.15;;;;;;;2.69;100.00;99190.41;4815110;29;20166;-72
2021/12/08 02:27:23;;;;;;;10.88;5.65;;;;;;;2.68;100.00;99202.88;4809164;29;20613;-72
2021/12/08 02:29:56;;;;;;;11.88;5.10;;;;;;;2.65;100.00;99202.47;4818246;29;20046;-73
2021/12/08 02:48:30;;;;;;;10.80;5.68;;;;;;;2.58;100.00;99189.97;4832795;29;20042;-74
2021/12/08 02:50:58;;;;;;;15.60;5.82;;;;;;;2.57;100.00;99185.69;4827757;29;20312;-74
2021/12/08 02:53:24;;;;;;;13.32;6.40;;;;;;;2.56;100.00;99189.38;4823095;28;20067;-73
2021/12/08 02:55:50;;;;;;;11.85;6.63;;;;;;;2.55;100.00;99174.44;4821215;29;20043;-73
2021/12/08 02:58:16;;;;;;;18.55;6.07;;;;;;;2.61;100.00;99181.59;4804663;28;20053;-73
2021/12/08 03:00:50;;;;;;;11.48;6.55;;;;;;;2.61;100.00;99181.59;4801316;29;20027;-73
2021/12/08 03:03:15;;;;;;;11.93;5.95;;;;;;;2.63;100.00;99179.56;4836956;29;20169;-73
2021/12/08 03:05:41;;;;;;;16.60;6.28;;;;;;;2.69;100.00;99188.56;4821653;28;21184;-74
2021/12/08 03:08:07;;;;;;;19.02;5.60;;;;;;;2.68;100.00;99186.13;4801022;29;20027;-73
2021/12/08 03:10:37;;;;;;;12.10;6.10;;;;;;;2.70;100.00;99189.38;4812085;28;21326;-72
2021/12/08 03:13:02;;;;;;;14.75;6.43;;;;;;;2.71;100.00;99197.16;4808828;29;26802;-72
2021/12/08 03:15:28;;;;;;;14.98;7.35;;;;;;;2.73;100.00;99181.00;4818466;29;20086;-72
2021/12/08 03:17:54;;;;;;;12.27;5.95;;;;;;;2.72;100.00;99177.53;4822321;28;20063;-71
2021/12/08 03:20:28;;;;;;;16.15;6.35;;;;;;;2.80;100.00;99187.16;4815246;29;20333;-72
2021/12/08 03:22:59;;;;;;;;;;;;;;;2.80;100.00;99195.13;4810762;29;20207;-72
2021/12/08 03:25:25;;;;;;;12.18;6.30;;;;;;;2.83;100.00;99190.22;4806396;28;19926;-72
2021/12/08 03:28:06;;;;;;;10.27;5.85;;;;;;;2.85;100.00;99198.00;4832671;29;20049;-72
2021/12/08 03:30:40;;;;;;;13.52;6.05;;;;;;;2.89;100.00;99193.91;4802705;29;24577;-72
2021/12/08 03:33:06;;;;;;;11.38;5.95;;;;;;;2.88;100.00;99192.28;4817570;29;20027;-73
2021/12/08 03:35:31;;;;;;;11.23;6.30;;;;;;;2.90;100.00;99189.41;4834152;29;20082;-74
2021/12/08 03:37:58;;;;;;;8.70;6.10;;;;;;;2.92;100.00;99184.72;4817456;28;20105;-72
2021/12/08 03:40:26;;;;;;;11.88;6.07;;;;;;;2.93;100.00;99195.13;4833689;28;20085;-73
2021/12/08 03:42:54;;;;;;;12.95;6.93;;;;;;;2.98;100.00;99187.34;4828927;28;20051;-73
2021/12/08 03:45:29;;;;;;;11.10;6.95;;;;;;;2.97;100.00;99191.03;4807642;29;20063;-73
2021/12/08 03:48:02;;;;;;;13.00;7.00;;;;;;;3.01;100.00;99192.28;4800974;29;20046;-73
2021/12/08 03:50:33;;;;;;;14.60;8.07;;;;;;;2.99;100.00;99194.34;4791772;29;20067;-73
2021/12/08 03:52:59;;;;;;;20.73;7.90;;;;;;;3.07;100.00;99190.66;4818283;29;20072;-73
2021/12/08 03:55:25;;;;;;;19.08;8.98;;;;;;;3.10;100.00;99195.56;4831291;28;20652;-72
2021/12/08 03:57:50;;;;;;;13.40;8.25;;;;;;;3.13;100.00;99200.47;4826236;29;20058;-72
2021/12/08 04:00:25;;;;;;;18.25;8.52;;;;;;;3.17;100.00;99207.03;4818724;29;20153;-73
2021/12/08 04:02:51;;;;;;;12.05;8.32;;;;;;;3.20;100.00;99200.47;4820692;29;20213;-72
2021/12/08 04:05:19;;;;;;;13.32;9.07;;;;;;;3.24;100.00;99207.03;4819816;29;20036;-72
2021/12/08 04:07:47;;;;;;;13.55;7.97;;;;;;;3.31;100.00;99207.84;4817594;28;20033;-74
2021/12/08 04:10:18;;;;;;;17.52;8.27;;;;;;;3.33;100.00;99213.75;4803367;28;20142;-73
2021/12/08 04:12:51;;;;;;;13.40;9.35;;;;;;;3.37;100.00;99212.34;4800276;29;20034;-72
2021/12/08 04:15:19;;;;;;;19.97;9.00;;;;;;;3.44;100.00;99226.47;4813361;29;20136;-72
2021/12/08 04:17:47;;;;;;;13.73;8.73;;;;;;;3.42;100.00;99220.53;4824483;29;20067;-72
2021/12/08 04:20:41;;;;;;;19.25;9.00;;;;;;;3.44;100.00;99218.50;4801734;29;20059;-73
2021/12/08 04:23:07;;;;;;;;;;;;;;;3.46;100.00;99221.75;4816442;29;20055;-72
2021/12/08 04:25:35;;;;;;;15.40;8.80;;;;;;;3.43;100.00;99221.34;4818883;28;21027;-73
2021/12/08 04:28:05;;;;;;;18.85;10.55;;;;;;;3.45;100.00;99225.44;4797050;29;20047;-73
2021/12/08 04:30:36;;;;;;;13.52;10.43;;;;;;;3.43;100.00;99224.00;4825628;28;20111;-74
2021/12/08 04:33:01;;;;;;;21.50;10.75;;;;;;;3.44;100.00;99213.16;4833822;29;20056;-73
2021/12/08 04:35:28;;;;;;;19.42;12.02;;;;;;;3.44;100.00;99229.13;4787037;29;20617;-72
2021/12/08 04:37:58;;;;;;;18.95;11.68;;;;;;;3.47;100.00;99228.69;4832126;29;21333;-73
2021/12/08 04:40:34;;;;;;;17.23;12.55;;;;;;;3.50;100.00;99238.13;4832755;29;21096;-72
2021/12/08 04:43:14;;;;;;;18.58;11.75;;;;;;;3.53;100.00;99233.19;4806935;29;20146;-72
2021/12/08 04:46:29;;;;;;;18.88;11.90;;;;;;;3.57;100.00;99238.94;4818449;29;20113;-72
2021/12/08 05:07:14;;;;;;;25.48;15.75;;;;;;;3.80;100.00;99238.50;4813956;28;20642;-73
2021/12/08 05:09:40;;;;;;;23.10;16.00;;;;;;;3.82;100.00;99236.44;4811559;29;20168;-73
2021/12/08 05:12:28;;;;;;;21.92;15.88;;;;;;;3.85;100.00;99244.00;4824451;29;20035;-73
2021/12/08 05:14:57;;;;;;;24.02;14.77;;;;;;;3.88;100.00;99240.94;4823158;29;20369;-73
2021/12/08 05:17:31;;;;;;;20.45;15.13;;;;;;;3.92;100.00;99242.16;4822193;29;20031;-73
2021/12/08 05:19:59;;;;;;;22.17;15.10;;;;;;;3.95;100.00;99251.56;4832783;29;20180;-73
2021/12/08 05:22:32;;;;;;;23.20;15.40;;;;;;;3.98;100.00;99246.66;4829758;29;20047;-73
2021/12/08 05:25:00;;;;;;;20.80;15.52;;;;;;;4.03;100.00;99246.00;4838429;29;20027;-73
2021/12/08 05:27:33;;;;;;;22.25;15.38;;;;;;;4.05;100.00;99255.44;4792156;29;20059;-73
2021/12/08 05:30:08;;;;;;;25.08;14.75;;;;;;;4.03;100.00;99264.66;4838672;29;20035;-74
2021/12/08 05:32:34;;;;;;;19.15;14.73;;;;;;;4.05;100.00;99258.09;4831647;28;20035;-74
2021/12/08 05:34:59;;;;;;;20.20;14.40;;;;;;;4.11;100.00;99255.63;4826917;29;20097;-74
2021/12/08 05:37:26;;;;;;;27.13;15.13;;;;;;;4.09;100.00;99261.16;4817800;29;20047;-74
2021/12/08 05:39:52;;;;;;;25.42;14.80;;;;;;;4.12;100.00;99262.59;4822391;29;20687;-74
2021/12/08 05:42:21;;;;;;;20.13;14.00;;;;;;;4.13;100.00;99266.91;4833962;28;20047;-74
2021/12/08 05:44:46;;;;;;;21.65;15.27;;;;;;;4.16;100.00;99261.16;4819260;29;20038;-74
2021/12/08 05:47:22;;;;;;;24.85;14.18;;;;;;;4.21;100.00;99274.66;4806611;28;20055;-74
2021/12/08 05:49:49;;;;;;;26.17;15.35;;;;;;;4.24;100.00;99266.25;4818882;29;20023;-74
2021/12/08 05:52:15;;;;;;;17.70;13.82;;;;;;;4.24;100.00;99271.56;4828228;28;20132;-73
2021/12/08 05:54:43;;;;;;;17.60;14.75;;;;;;;4.23;100.00;99276.09;4825694;29;20542;-73
2021/12/08 05:57:15;;;;;;;23.42;14.40;;;;;;;4.16;100.00;99280.63;4801400;29;20045;-74
2021/12/08 05:59:41;;;;;;;18.42;14.57;;;;;;;4.22;100.00;99284.31;4804578;29;20070;-74
2021/12/08 06:02:18;;;;;;;21.17;15.35;;;;;;;4.22;100.00;99286.97;4803124;29;20596;-75
2021/12/08 06:04:44;;;;;;;20.42;14.85;;;;;;;4.25;100.00;99302.56;4798945;28;20031;-75
2021/12/08 06:07:10;;;;;;;26.00;15.30;;;;;;;4.27;100.00;99292.47;4828764;29;20049;-75
2021/12/08 06:09:37;;;;;;;23.50;15.13;;;;;;;4.28;100.00;99286.13;4803037;29;20098;-75
2021/12/08 06:12:05;;;;;;;19.65;15.48;;;;;;;4.28;100.00;99294.13;4806746;29;20109;-74
2021/12/08 06:14:32;;;;;;;23.55;14.93;;;;;;;4.28;100.00;99294.13;4836643;29;20173;-74
2021/12/08 06:17:01;;;;;;;22.05;14.80;;;;;;;4.26;100.00;99293.53;4822775;29;20062;-75
2021/12/08 06:19:27;;;;;;;20.35;14.80;;;;;;;4.27;100.00;99300.47;4820951;29;20058;-74
2021/12/08 06:21:52;;;;;;;23.30;15.32;;;;;;;4.25;100.00;99305.22;4834241;29;20031;-75
2021/12/08 06:24:20;;;;;;;23.50;15.68;;;;;;;4.26;100.00;99312.19;4812355;29;20051;-75
2021/12/08 06:26:47;;;;;;;19.10;13.50;;;;;;;4.18;100.00;99299.09;4824655;28;20134;-75
2021/12/08 06:29:15;;;;;;;24.42;15.00;;;;;;;4.11;100.00;99308.91;4817658;29;20043;-74
2021/12/08 06:31:41;;;;;;;19.48;15.18;;;;;;;4.04;100.00;99309.78;4805329;29;21584;-74
2021/12/08 06:34:07;;;;;;;21.38;14.93;;;;;;;4.09;100.00;99311.00;4817772;29;20114;-74
2021/12/08 06:36:40;;;;;;;21.90;14.63;;;;;;;4.08;100.00;99310.19;4798565;29;21050;-72
2021/12/08 06:39:13;;;;;;;20.35;15.02;;;;;;;4.04;100.00;99325.75;4802966;29;24023;-72
2021/12/08 06:41:42;;;;;;;25.53;15.97;;;;;;;4.04;100.00;99331.09;4815789;29;20072;-73
2021/12/08 06:44:18;;;;;;;21.48;15.00;;;;;;;4.02;100.00;99329.66;4813139;29;20562;-73
2021/12/08 06:46:44;;;;;;;23.27;14.45;;;;;;;3.97;100.00;99319.63;4823133;29;20134;-73
2021/12/08 06:49:12;;;;;;;22.77;14.25;;;;;;;3.97;100.00;99324.94;4818128;29;20067;-73
2021/12/08 06:51:41;;;;;;;20.23;14.73;;;;;;;3.92;100.00;99330.06;4817317;28;20519;-73
2021/12/08 06:54:21;;;;;;;21.52;15.02;;;;;;;3.92;100.00;99330.06;4815767;29;20035;-73
2021/12/08 06:56:53;;;;;;;20.08;13.57;;;;;;;4.03;100.00;99334.75;4812596;29;20051;-73
2021/12/08 06:59:23;;;;;;;19.98;13.70;;;;;;;4.09;100.00;99335.78;4805860;29;20055;-74
2021/12/08 07:02:04;;;;;;;20.35;13.75;;;;;;;4.18;100.00;99336.41;4818066;29;20036;-74
2021/12/08 07:04:42;;;;;;;19.65;12.70;;;;;;;4.23;100.00;99339.25;4819071;28;20051;-74
2021/12/08 07:07:15;;;;;;;17.45;11.63;;;;;;;4.26;100.00;99336.97;4819519;29;20064;-74
2021/12/08 07:09:45;;;;;;;23.90;12.25;;;;;;;4.23;100.00;99345.41;4812649;29;20047;-74
2021/12/08 07:12:36;;;;;;;19.17;11.90;;;;;;;4.17;100.00;99342.75;4799138;29;20062;-73
2021/12/08 07:15:10;;;;;;;22.27;12.60;;;;;;;4.12;100.00;99342.56;4812432;29;20559;-74
2021/12/08 07:17:39;;;;;;;21.15;12.30;;;;;;;4.02;100.00;99349.13;4798121;28;23866;-74
2021/12/08 07:20:15;;;;;;;19.35;12.45;;;;;;;3.96;100.00;99354.44;4813401;29;20028;-74
2021/12/08 07:22:44;;;;;;;17.55;11.77;;;;;;;3.80;100.00;99353.84;4809281;28;20059;-74
2021/12/08 07:25:12;;;;;;;21.92;11.55;;;;;;;3.79;100.00;99362.88;4816567;29;20060;-74
2021/12/08 07:27:38;;;;;;;20.27;12.85;;;;;;;3.78;100.00;99374.53;4811348;29;20092;-74
2021/12/08 07:30:10;;;;;;;18.08;11.80;;;;;;;3.78;100.00;99373.72;4799152;29;20060;-74
2021/12/08 07:32:38;;;;;;;23.92;12.27;;;;;;;3.79;100.00;99364.69;4810356;29;20371;-74
2021/12/08 07:35:10;;;;;;;22.63;12.75;;;;;;;3.80;100.00;99387.66;4809459;29;20055;-74
2021/12/08 07:37:36;;;;;;;19.63;12.48;;;;;;;3.75;100.00;99395.44;4803180;29;20048;-74
2021/12/08 07:40:18;;;;;;;15.68;11.20;;;;;;;3.72;100.00;99393.16;4797886;29;21208;-74
2021/12/08 07:42:52;;;;;;;19.15;11.20;;;;;;;3.70;100.00;99397.91;4800566;28;20056;-74
2021/12/08 07:45:31;;;;;;;25.25;11.00;;;;;;;3.66;100.00;99399.31;4814357;29;20084;-73
2021/12/08 07:47:57;;;;;;;21.73;10.95;;;;;;;3.74;100.00;99405.25;4798813;29;20146;-74
2021/12/08 07:50:31;;;;;;;22.63;10.75;;;;;;;3.73;100.00;99400.16;4802456;29;25418;-74
2021/12/08 07:52:58;;;;;;;18.42;9.50;;;;;;;3.78;100.00;99385.19;4795053;29;20051;-74
2021/12/08 07:55:34;;;;;;;21.83;9.65;;;;;;;3.83;100.00;99384.59;4790234;29;20114;-74
2021/12/08 07:58:00;;;;;;;15.15;9.05;;;;;;;3.86;100.00;99381.53;4806106;29;20086;-74
2021/12/08 08:00:32;;;;;;;16.33;8.65;;;;;;;3.84;100.00;99399.53;4815115;29;20070;-74
2021/12/08 08:02:58;;;;;;;13.20;7.95;;;;;;;3.79;100.00;99396.66;4801848;29;20055;-74
2021/12/08 08:05:32;;;;;;;17.50;7.13;;;;;;;3.83;100.00;99408.56;4812032;29;20038;-74
2021/12/08 08:08:03;;;;;;;17.45;8.27;;;;;;;3.85;100.00;99403.84;4792508;29;20070;-75
2021/12/08 08:10:30;;;;;;;13.77;7.97;;;;;;;3.85;100.00;99419.81;4806323;29;20051;-75
2021/12/08 08:12:57;;;;;;;16.58;7.45;;;;;;;3.83;100.00;99428.03;4814298;29;20055;-75
2021/12/08 08:15:25;;;;;;;9.82;6.13;;;;;;;3.82;100.00;99428.22;4818956;28;20059;-74
2021/12/08 08:17:53;;;;;;;14.77;6.07;;;;;;;3.88;100.00;99438.06;4820946;29;20063;-75
2021/12/08 08:20:25;;;;;;;13.98;6.38;;;;;;;3.89;100.00;99437.03;4824878;29;20031;-74
2021/12/08 08:22:52;;;;;;;16.00;5.32;;;;;;;4.03;100.00;99441.34;4809649;29;20051;-74
2021/12/08 08:25:21;;;;;;;14.05;5.55;;;;;;;4.12;100.00;99427.84;4832068;29;20046;-74
2021/12/08 08:27:46;;;;;;;10.05;5.20;;;;;;;4.23;100.00;99430.69;4827990;28;20075;-74
2021/12/08 08:30:18;;;;;;;14.15;5.05;;;;;;;4.33;100.00;99424.13;4811240;29;20688;-75
2021/12/08 08:32:47;;;;;;;14.52;5.20;;;;;;;4.36;100.00;99423.72;4820786;29;20042;-74
2021/12/08 08:35:18;;;;;;;13.00;4.57;;;;;;;4.45;100.00;99415.28;4806257;29;20150;-74
2021/12/08 08:37:44;;;;;;;15.13;4.97;;;;;;;4.71;100.00;99432.28;4835689;28;20039;-74
2021/12/08 08:40:19;;;;;;;13.93;4.53;;;;;;;4.73;100.00;99435.53;4830933;28;20157;-74
2021/12/08 08:42:46;;;;;;;14.75;3.75;;;;;;;4.75;100.00;99438.81;4811805;29;20059;-74
2021/12/08 08:45:18;;;;;;;12.88;4.35;;;;;;;4.78;100.00;99430.41;4820336;29;20046;-74
2021/12/08 08:48:03;;;;;;;9.07;3.60;;;;;;;4.81;100.00;99438.00;4803750;29;20628;-74
2021/12/08 08:50:40;;;;;;;10.63;3.28;;;;;;;4.86;100.00;99438.16;4817950;29;20050;-74
2021/12/08 08:53:06;;;;;;;15.07;3.38;;;;;;;4.91;100.00;99449.03;4815659;28;20343;-74
2021/12/08 08:55:55;;;;;;;13.10;3.05;;;;;;;4.98;100.00;99449.84;4810028;29;22952;-71
2021/12/08 08:58:24;;;;;;;9.20;2.75;;;;;;;5.17;100.00;99449.97;4818102;29;25828;-72
2021/12/08 09:00:53;;;;;;;11.93;3.13;;;;;;;5.39;100.00;99456.63;4803920;28;20058;-73
2021/12/08 09:03:23;;;;;;;10.52;3.05;;;;;;;5.58;100.00;99456.75;4816818;29;20054;-74
2021/12/08 09:05:53;;;;;;;11.90;3.17;;;;;;;5.78;100.00;99468.13;4818230;28;20024;-75
2021/12/08 09:08:24;;;;;;;10.25;3.53;;;;;;;6.00;100.00;99470.50;4814839;29;20047;-75
2021/12/08 09:11:00;;;;;;;18.55;3.72;;;;;;;6.14;100.00;99469.34;4823354;29;20167;-75
2021/12/08 09:13:51;;;;;;;11.23;2.40;;;;;;;6.44;100.00;99470.34;4786652;29;20978;-75
2021/12/08 09:16:24;;;;;;;8.63;1.90;;;;;;;6.30;100.00;99484.88;4818489;29;20027;-74
2021/12/08 09:19:04;;;;;;;11.80;2.55;;;;;;;6.07;100.00;99471.25;4813692;28;20059;-74
2021/12/08 09:21:29;;;;;;;9.95;2.28;;;;;;;5.98;100.00;99471.53;4824902;28;20644;-73
2021/12/08 09:23:58;;;;;;;12.93;3.80;;;;;;;5.93;100.00;99481.22;4817555;29;20062;-73
2021/12/08 09:26:26;;;;;;;8.50;2.80;;;;;;;5.82;100.00;99480.03;4819766;29;20071;-72
2021/12/08 09:29:00;;;;;;;15.60;3.40;;;;;;;5.65;100.00;99478.91;4816077;29;20125;-70
2021/12/08 09:31:33;;;;;;;16.00;3.50;;;;;;;5.67;100.00;99458.97;4800481;29;22665;-71
2021/12/08 09:34:03;;;;;;;9.82;2.40;;;;;;;5.78;100.00;99470.81;4808013;28;20055;-71
2021/12/08 09:36:42;;;;;;;12.98;2.80;;;;;;;5.74;100.00;99480.28;4832173;29;20085;-70
2021/12/08 09:39:13;;;;;;;11.55;2.22;;;;;;;5.66;100.00;99485.91;4819304;28;20078;-71
2021/12/08 09:41:51;;;;;;;10.73;3.13;;;;;;;5.62;100.00;99492.72;4816837;29;20039;-71
2021/12/08 09:44:20;;;;;;;14.40;2.97;;;;;;;5.58;100.00;99494.16;4816287;29;20032;-71
2021/12/08 09:46:49;;;;;;;12.98;2.47;;;;;;;5.53;100.00;99500.13;4803646;29;20675;-72
2021/12/08 09:49:16;;;;;;;17.40;3.00;;;;;;;5.59;100.00;99515.31;4816567;29;20035;-72
2021/12/08 09:51:43;;;;;;;22.15;2.95;;;;;;;5.48;100.00;99519.47;4815035;28;20051;-72
2021/12/08 09:54:08;;;;;;;16.33;3.33;;;;;;;5.53;100.00;99523.34;4807878;29;20099;-73
2021/12/08 09:56:34;;;;;;;13.93;2.90;;;;;;;5.54;100.00;99511.63;4817437;29;20440;-74
2021/12/08 09:59:03;;;;;;;16.95;3.33;;;;;;;5.61;100.00;99523.09;4802616;29;23002;-73
2021/12/08 10:01:29;;;;;;;15.68;3.38;;;;;;;6.22;100.00;99519.91;4819086;29;20122;-74
2021/12/08 10:03:55;;;;;;;17.85;3.03;;;;;;;6.67;100.00;99538.50;4813724;28;20047;-72
2021/12/08 10:06:23;;;;;;;11.27;3.15;;;;;;;6.72;100.00;99527.94;4824326;29;20940;-72
2021/12/08 10:08:49;;;;;;;13.20;2.90;;;;;;;6.65;100.00;99543.25;4816632;29;20078;-73
2021/12/08 10:11:16;;;;;;;13.52;2.67;;;;;;;6.82;100.00;99535.47;4820471;28;21176;-73
2021/12/08 10:13:44;;;;;;;10.68;2.55;;;;;;;6.68;100.00;99545.47;4792813;29;20098;-73
2021/12/08 10:16:12;;;;;;;14.30;5.03;;;;;;;7.16;100.00;99526.91;4813030;29;20423;-73
2021/12/08 10:18:37;;;;;;;15.40;3.55;;;;;;;7.40;100.00;99543.91;4801181;28;20161;-73
2021/12/08 10:21:03;;;;;;;9.38;3.20;;;;;;;7.58;100.00;99539.59;4827411;29;20512;-74
2021/12/08 10:23:33;;;;;;;11.45;2.22;;;;;;;7.46;100.00;99519.97;4810270;28;20147;-74
2021/12/08 10:26:01;;;;;;;14.60;2.70;;;;;;;7.29;100.00;99517.06;4809252;29;20052;-74
2021/12/08 10:28:30;;;;;;;13.90;2.53;;;;;;;6.96;100.00;99515.56;4816931;29;22917;-74
2021/12/08 10:31:15;;;;;;;11.02;2.78;;;;;;;7.17;100.00;99512.47;4808045;28;20044;-74
2021/12/08 10:39:02;;;;;;;16.00;3.75;;;;;;;7.06;100.00;99520.41;4809132;29;20104;-74
2021/12/08 10:41:42;;;;;;;16.23;2.90;;;;;;;7.48;100.00;99502.63;4832396;28;20466;-74
2021/12/08 10:44:08;;;;;;;9.77;2.00;;;;;;;7.82;100.00;99501.13;4817150;28;20047;-74
2021/12/08 10:46:35;;;;;;;12.35;2.88;;;;;;;7.96;100.00;99492.91;4833254;29;20145;-74
2021/12/08 10:49:18;;;;;;;11.38;2.40;;;;;;;7.98;100.00;99491.63;4814841;28;20039;-74
2021/12/08 10:54:31;;;;;;;15.13;2.97;;;;;;;8.35;100.00;99484.25;4819454;29;20058;-73
2021/12/08 10:56:59;;;;;;;13.95;2.53;;;;;;;8.13;100.00;99483.97;4818267;28;20051;-73
2021/12/08 10:59:25;;;;;;;16.42;2.80;;;;;;;7.92;100.00;99481.00;4813867;29;20035;-74
2021/12/08 11:01:52;;;;;;;12.88;3.13;;;;;;;7.76;100.00;99494.00;4814575;29;20090;-74
2021/12/08 11:04:19;;;;;;;15.50;2.78;;;;;;;7.78;100.00;99497.28;4815598;28;20123;-74
2021/12/08 11:06:45;;;;;;;10.82;2.45;;;;;;;8.01;100.00;99495.72;4834984;29;20042;-74
2021/12/08 11:09:16;;;;;;;14.50;2.72;;;;;;;8.27;100.00;99495.31;4807240;29;20047;-74
2021/12/08 11:11:44;;;;;;;13.57;2.58;;;;;;;7.64;100.00;99501.16;4822037;29;20254;-74
2021/12/08 11:14:11;;;;;;;15.05;3.17;;;;;;;7.41;100.00;99513.41;4829751;28;20170;-74
2021/12/08 11:16:39;;;;;;;7.32;2.33;;;;;;;7.51;100.00;99504.00;4798987;29;20051;-75
2021/12/08 11:19:15;;;;;;;13.70;3.20;;;;;;;7.44;100.00;99511.31;4813414;29;20030;-75
2021/12/08 11:21:45;;;;;;;8.95;2.72;;;;;;;7.23;100.00;99513.44;4831819;28;20035;-74
2021/12/08 11:24:24;;;;;;;8.32;2.47;;;;;;;7.00;100.00;99514.09;4827932;29;21089;-74
2021/12/08 11:26:51;;;;;;;13.10;2.47;;;;;;;7.52;100.00;99519.06;4819520;29;23906;-74
2021/12/08 11:29:21;;;;;;;13.75;2.78;;;;;;;8.06;100.00;99519.97;4805113;28;20058;-74
2021/12/08 11:31:51;;;;;;;11.75;2.35;;;;;;;7.45;100.00;99529.06;4811625;29;20039;-74
2021/12/08 11:34:26;;;;;;;13.95;2.88;;;;;;;7.03;100.00;99537.75;4831747;29;20039;-74
2021/12/08 11:36:58;;;;;;;9.25;2.40;;;;;;;6.77;100.00;99529.94;4816935;29;20087;-74
2021/12/08 11:39:28;;;;;;;12.32;2.85;;;;;;;6.58;100.00;99537.13;4817889;29;20845;-72
2021/12/08 11:41:59;;;;;;;9.50;2.00;;;;;;;6.53;100.00;99550.31;4812684;29;20070;-74
2021/12/08 11:44:27;;;;;;;13.75;3.25;;;;;;;6.47;100.00;99544.00;4823227;29;20102;-73
2021/12/08 11:46:55;;;;;;;11.55;3.15;;;;;;;6.39;100.00;99542.41;4815513;29;20035;-74
2021/12/08 11:49:21;;;;;;;14.65;2.95;;;;;;;6.34;100.00;99550.25;4801979;28;21111;-73
2021/12/08 11:51:47;;;;;;;12.40;3.05;;;;;;;6.38;100.00;99545.28;4817707;29;20099;-74
2021/12/08 11:54:28;;;;;;;18.08;2.72;;;;;;;6.27;100.00;99541.47;4811329;28;20082;-73
2021/12/08 11:57:11;;;;;;;7.70;2.15;;;;;;;6.22;100.00;99550.16;4807726;29;20055;-74
2021/12/08 11:59:56;;;;;;;9.05;2.25;;;;;;;6.27;100.00;99559.38;4800043;29;26275;-75
2021/12/08 12:02:26;;;;;;;9.85;2.42;;;;;;;6.21;100.00;99556.53;4803153;28;20162;-73
2021/12/08 12:04:51;;;;;;;17.60;3.08;;;;;;;6.28;100.00;99561.00;4829013;29;20143;-72
2021/12/08 12:07:17;;;;;;;10.95;2.60;;;;;;;6.21;100.00;99566.38;4806882;28;20044;-73
2021/12/08 12:09:43;;;;;;;9.02;2.10;;;;;;;6.21;100.00;99582.44;4804456;29;22715;-73
2021/12/08 12:12:09;;;;;;;11.75;2.50;;;;;;;6.14;100.00;99571.81;4828283;29;20138;-72
2021/12/08 12:14:35;;;;;;;10.80;2.90;;;;;;;6.17;100.00;99582.03;4802868;29;20062;-73
2021/12/08 12:17:01;;;;;;;13.50;2.97;;;;;;;6.18;100.00;99583.69;4799303;29;20055;-73
2021/12/08 12:19:32;;;;;;;11.15;2.95;;;;;;;6.12;100.00;99578.41;4815825;29;20034;-74
2021/12/08 12:22:07;;;;;;;11.80;2.55;;;;;;;6.17;100.00;99589.25;4814817;28;20064;-74